Time;durP1;ratioP1;P1;durP2;ratioP2;P2;SDS_P1;SDS_P2;PMS_P1;PMS_P2;Temp;Humidity;BMP_temperature;BMP_pressure;BME280_temperature;BME280_humidity;BME280_pressure;Samples;Min_cycle;Max_cycle;Signal;HPM_P1;HPM_P2
2021/12/10 00:00:18;;;;;;;;;;;24.50;27.40;;;;;;478342;249;1095;-47
2021/12/10 00:02:19;;;;;;;;;;;24.50;27.40;;;;;;478201;249;1810;-47
2021/12/10 00:04:21;;;;;;;;;;;24.50;27.40;;;;;;478350;248;1156;-47
2021/12/10 00:06:22;;;;;;;;;;;24.50;27.40;;;;;;478600;249;1515;-46
2021/12/10 00:08:23;;;;;;;;;;;24.50;27.40;;;;;;478810;249;1240;-47
2021/12/10 00:10:25;;;;;;;;;;;24.60;27.40;;;;;;478761;249;1073;-47
2021/12/10 00:12:26;;;;;;;;;;;24.50;27.40;;;;;;478395;248;1342;-47
2021/12/10 00:14:29;;;;;;;;;;;24.50;27.40;;;;;;478814;249;1040;-47
2021/12/10 00:16:29;;;;;;;;;;;24.50;27.30;;;;;;478207;249;2299;-46
2021/12/10 00:18:34;;;;;;;;;;;24.50;27.40;;;;;;478794;249;1088;-47
2021/12/10 00:20:33;;;;;;;;;;;24.50;27.40;;;;;;478147;249;1433;-47
2021/12/10 00:22:38;;;;;;;;;;;24.50;27.40;;;;;;478245;249;2556;-46
2021/12/10 00:24:35;;;;;;;;;;;24.50;27.30;;;;;;478135;248;1763;-47
2021/12/10 00:26:36;;;;;;;;;;;24.50;27.40;;;;;;478681;248;1342;-47
2021/12/10 00:28:39;;;;;;;;;;;24.50;27.40;;;;;;478586;248;1538;-47
2021/12/10 00:30:47;;;;;;;;;;;24.50;27.30;;;;;;478264;249;2242;-47
2021/12/10 00:32:41;;;;;;;;;;;24.50;27.30;;;;;;478124;248;2305;-46
2021/12/10 00:34:42;;;;;;;;;;;24.50;27.30;;;;;;478892;248;1113;-47
2021/12/10 00:36:43;;;;;;;;;;;24.50;27.30;;;;;;478313;249;2187;-47
2021/12/10 00:38:44;;;;;;;;;;;24.50;27.30;;;;;;478817;248;1061;-47
2021/12/10 00:40:45;;;;;;;;;;;24.50;27.30;;;;;;478495;248;1374;-47
2021/12/10 00:42:47;;;;;;;;;;;24.50;27.30;;;;;;478287;249;1165;-47
2021/12/10 00:44:48;;;;;;;;;;;24.50;27.30;;;;;;478858;249;1059;-46
2021/12/10 00:46:49;;;;;;;;;;;24.50;27.30;;;;;;478396;249;1538;-47
2021/12/10 00:48:51;;;;;;;;;;;24.50;27.30;;;;;;478374;249;1239;-47
2021/12/10 00:50:52;;;;;;;;;;;24.50;27.20;;;;;;478800;248;1411;-47
2021/12/10 00:52:53;;;;;;;;;;;24.50;27.20;;;;;;478742;249;1181;-47
2021/12/10 00:54:55;;;;;;;;;;;24.50;27.20;;;;;;478787;248;1058;-47
2021/12/10 00:56:56;;;;;;;;;;;24.50;27.20;;;;;;478252;249;2203;-47
2021/12/10 00:58:57;;;;;;;;;;;24.50;27.20;;;;;;478557;249;1199;-47
2021/12/10 01:00:59;;;;;;;;;;;24.50;27.20;;;;;;478783;249;1150;-47
2021/12/10 01:03:00;;;;;;;;;;;24.50;27.20;;;;;;478834;248;1091;-47
2021/12/10 01:05:01;;;;;;;;;;;24.50;27.20;;;;;;478801;249;1076;-46
2021/12/10 01:07:03;;;;;;;;;;;24.50;27.20;;;;;;478522;249;1138;-47
2021/12/10 01:09:04;;;;;;;;;;;24.50;27.20;;;;;;478808;249;1073;-47
2021/12/10 01:11:05;;;;;;;;;;;24.50;27.20;;;;;;478777;249;1514;-47
2021/12/10 01:13:08;;;;;;;;;;;24.50;27.10;;;;;;478381;248;1126;-47
2021/12/10 01:15:31;;;;;;;;;;;24.50;27.20;;;;;;478278;249;2183;-47
2021/12/10 01:24:15;;;;;;;;;;;24.50;27.20;;;;;;478835;248;1206;-47
2021/12/10 01:28:12;;;;;;;;;;;24.50;27.20;;;;;;488788;237;3577;-47
2021/12/10 01:30:13;;;;;;;;;;;24.50;27.20;;;;;;501536;237;1234;-47
2021/12/10 01:32:15;;;;;;;;;;;24.50;27.20;;;;;;501465;237;1232;-47
2021/12/10 01:34:16;;;;;;;;;;;24.50;27.20;;;;;;501584;236;1052;-46
2021/12/10 01:36:17;;;;;;;;;;;24.50;27.20;;;;;;501874;236;2203;-47
2021/12/10 01:38:19;;;;;;;;;;;24.50;27.10;;;;;;501724;236;1177;-47
2021/12/10 01:40:21;;;;;;;;;;;24.50;27.10;;;;;;501604;236;1149;-47
2021/12/10 01:42:34;;;;;;;;;;;24.50;27.10;;;;;;501594;236;1973;-47
2021/12/10 01:44:29;;;;;;;;;;;24.50;27.10;;;;;;501370;237;2186;-47
2021/12/10 01:46:29;;;;;;;;;;;24.50;27.10;;;;;;501269;237;2274;-46
2021/12/10 01:48:30;;;;;;;;;;;24.50;27.10;;;;;;501413;237;2417;-47
2021/12/10 01:50:31;;;;;;;;;;;24.50;27.10;;;;;;501945;236;1052;-47
2021/12/10 01:52:32;;;;;;;;;;;24.50;27.10;;;;;;501911;236;1318;-47
2021/12/10 01:54:35;;;;;;;;;;;24.50;27.10;;;;;;501541;236;1083;-47
2021/12/10 01:56:35;;;;;;;;;;;24.50;27.10;;;;;;501919;236;2163;-47
2021/12/10 01:58:37;;;;;;;;;;;24.50;27.10;;;;;;501088;236;971;-47
2021/12/10 02:00:38;;;;;;;;;;;24.50;27.10;;;;;;501617;236;1099;-47
2021/12/10 02:02:39;;;;;;;;;;;24.50;27.10;;;;;;501565;236;1024;-47
2021/12/10 02:04:41;;;;;;;;;;;24.50;27.10;;;;;;501497;237;1191;-47
2021/12/10 02:06:42;;;;;;;;;;;24.60;27.10;;;;;;501673;236;1006;-47
2021/12/10 02:08:43;;;;;;;;;;;24.60;27.10;;;;;;501513;236;1055;-46
2021/12/10 02:10:45;;;;;;;;;;;24.50;27.10;;;;;;501929;236;1071;-47
2021/12/10 02:12:46;;;;;;;;;;;24.50;27.10;;;;;;501459;237;1243;-47
2021/12/10 02:14:51;;;;;;;;;;;24.60;27.10;;;;;;501894;236;1086;-47
2021/12/10 02:16:49;;;;;;;;;;;24.60;27.10;;;;;;501165;237;2175;-47
2021/12/10 02:18:50;;;;;;;;;;;24.50;27.10;;;;;;501937;236;1021;-47
2021/12/10 02:20:51;;;;;;;;;;;24.60;27.10;;;;;;501842;236;1234;-47
2021/12/10 02:22:53;;;;;;;;;;;24.50;27.10;;;;;;501509;236;1179;-47
2021/12/10 02:24:54;;;;;;;;;;;24.50;27.20;;;;;;501777;236;1238;-47
2021/12/10 02:26:55;;;;;;;;;;;24.50;27.10;;;;;;501611;236;1314;-47
2021/12/10 02:28:57;;;;;;;;;;;24.60;27.20;;;;;;501993;236;1055;-47
2021/12/10 02:30:59;;;;;;;;;;;24.60;27.10;;;;;;501927;236;1294;-47
2021/12/10 02:33:00;;;;;;;;;;;24.60;27.10;;;;;;501943;236;1995;-46
2021/12/10 02:35:01;;;;;;;;;;;24.60;27.10;;;;;;501547;236;1083;-47
2021/12/10 02:37:02;;;;;;;;;;;24.60;27.10;;;;;;501676;236;2112;-47
2021/12/10 02:39:04;;;;;;;;;;;24.60;27.10;;;;;;502011;236;984;-47
2021/12/10 02:41:05;;;;;;;;;;;24.60;27.10;;;;;;501429;236;1115;-47
2021/12/10 02:43:06;;;;;;;;;;;24.60;27.10;;;;;;501548;236;1450;-47
2021/12/10 02:45:08;;;;;;;;;;;24.60;27.10;;;;;;501989;236;991;-47
2021/12/10 02:47:09;;;;;;;;;;;24.60;27.10;;;;;;501674;236;1203;-47
2021/12/10 02:49:10;;;;;;;;;;;24.60;27.20;;;;;;501967;236;1039;-47
2021/12/10 02:51:11;;;;;;;;;;;24.60;27.20;;;;;;501561;236;1228;-47
2021/12/10 02:53:15;;;;;;;;;;;24.60;27.20;;;;;;501510;237;1206;-46
2021/12/10 02:55:15;;;;;;;;;;;24.60;27.20;;;;;;501915;237;2314;-47
2021/12/10 02:57:16;;;;;;;;;;;24.60;27.20;;;;;;501427;236;2539;-47
2021/12/10 02:59:17;;;;;;;;;;;24.60;27.20;;;;;;501509;236;1223;-47
2021/12/10 03:01:18;;;;;;;;;;;24.60;27.20;;;;;;501434;237;1358;-47
2021/12/10 03:03:20;;;;;;;;;;;24.60;27.20;;;;;;501484;236;1211;-47
2021/12/10 03:05:21;;;;;;;;;;;24.60;27.20;;;;;;501982;236;1209;-47
2021/12/10 03:07:22;;;;;;;;;;;24.60;27.20;;;;;;501471;236;1227;-47
2021/12/10 03:09:24;;;;;;;;;;;24.60;27.20;;;;;;501480;236;1099;-47
2021/12/10 03:11:25;;;;;;;;;;;24.60;27.20;;;;;;501474;237;1210;-47
2021/12/10 03:13:27;;;;;;;;;;;24.60;27.20;;;;;;501738;236;1169;-46
2021/12/10 03:15:28;;;;;;;;;;;24.60;27.20;;;;;;501707;236;1136;-47
2021/12/10 03:17:29;;;;;;;;;;;24.60;27.20;;;;;;501378;236;2235;-47
2021/12/10 03:19:30;;;;;;;;;;;24.60;27.20;;;;;;501812;236;1079;-47
2021/12/10 03:21:32;;;;;;;;;;;24.60;27.20;;;;;;501727;236;1189;-46
2021/12/10 03:23:33;;;;;;;;;;;24.60;27.20;;;;;;501439;236;1181;-46
2021/12/10 03:25:34;;;;;;;;;;;24.60;27.20;;;;;;501447;236;1184;-47
2021/12/10 03:27:36;;;;;;;;;;;24.60;27.20;;;;;;501861;236;1196;-46
2021/12/10 03:29:37;;;;;;;;;;;24.60;27.30;;;;;;501502;236;1239;-47
2021/12/10 03:31:39;;;;;;;;;;;24.60;27.20;;;;;;501819;236;1212;-47
2021/12/10 03:33:41;;;;;;;;;;;24.60;27.20;;;;;;501914;237;2325;-46
2021/12/10 03:35:42;;;;;;;;;;;24.60;27.20;;;;;;501427;237;2410;-46
2021/12/10 03:37:42;;;;;;;;;;;24.60;27.20;;;;;;501852;237;2132;-47
2021/12/10 03:39:44;;;;;;;;;;;24.60;27.20;;;;;;501599;236;1113;-46
2021/12/10 03:41:45;;;;;;;;;;;24.60;27.30;;;;;;501484;237;1111;-46
2021/12/10 03:43:46;;;;;;;;;;;24.60;27.20;;;;;;501556;236;1133;-47
2021/12/10 03:45:48;;;;;;;;;;;24.60;27.30;;;;;;501699;236;1046;-47
2021/12/10 03:47:49;;;;;;;;;;;24.60;27.20;;;;;;501412;236;1293;-47
2021/12/10 03:49:50;;;;;;;;;;;24.60;27.30;;;;;;501761;236;1074;-47
2021/12/10 03:51:52;;;;;;;;;;;24.60;27.20;;;;;;501596;236;1325;-47
2021/12/10 03:53:53;;;;;;;;;;;24.60;27.20;;;;;;501984;236;958;-47
2021/12/10 03:55:54;;;;;;;;;;;24.60;27.20;;;;;;501519;237;1165;-47
2021/12/10 03:57:55;;;;;;;;;;;24.70;27.20;;;;;;501471;236;2180;-47
2021/12/10 03:59:57;;;;;;;;;;;24.60;27.20;;;;;;501553;236;1091;-47
2021/12/10 04:01:58;;;;;;;;;;;24.60;27.20;;;;;;501396;237;1263;-47
2021/12/10 04:03:59;;;;;;;;;;;24.60;27.20;;;;;;501462;236;1053;-46
2021/12/10 04:06:01;;;;;;;;;;;24.60;27.20;;;;;;501932;236;1348;-47
2021/12/10 04:08:02;;;;;;;;;;;24.70;27.20;;;;;;501963;236;1079;-47
2021/12/10 04:10:04;;;;;;;;;;;24.60;27.20;;;;;;501697;236;1023;-47
2021/12/10 04:12:07;;;;;;;;;;;24.70;27.20;;;;;;501655;236;1324;-47
2021/12/10 04:14:06;;;;;;;;;;;24.70;27.20;;;;;;501726;237;2010;-47
2021/12/10 04:16:08;;;;;;;;;;;24.70;27.20;;;;;;501728;236;1181;-47
2021/12/10 04:18:09;;;;;;;;;;;24.70;27.10;;;;;;501965;236;2183;-47
2021/12/10 04:20:11;;;;;;;;;;;24.70;27.20;;;;;;501992;236;1023;-47
2021/12/10 04:22:12;;;;;;;;;;;24.70;27.20;;;;;;501489;236;1222;-47
2021/12/10 04:24:13;;;;;;;;;;;24.60;27.10;;;;;;501547;237;1245;-47
2021/12/10 04:26:14;;;;;;;;;;;24.60;27.20;;;;;;501453;237;1237;-46
2021/12/10 04:28:16;;;;;;;;;;;24.60;27.10;;;;;;501625;236;1063;-47
2021/12/10 04:30:17;;;;;;;;;;;24.70;27.20;;;;;;501519;236;1102;-51
2021/12/10 04:32:18;;;;;;;;;;;24.70;27.20;;;;;;501797;236;1234;-47
2021/12/10 04:34:20;;;;;;;;;;;24.70;27.20;;;;;;501455;237;995;-47
2021/12/10 04:36:21;;;;;;;;;;;24.70;27.10;;;;;;501594;236;1513;-47
2021/12/10 04:38:22;;;;;;;;;;;24.70;27.10;;;;;;501462;237;2176;-47
2021/12/10 04:40:24;;;;;;;;;;;24.70;27.10;;;;;;501962;236;1035;-47
2021/12/10 04:42:25;;;;;;;;;;;24.60;27.10;;;;;;501384;236;1180;-47
2021/12/10 04:44:26;;;;;;;;;;;24.70;27.20;;;;;;501693;236;1211;-47
2021/12/10 04:46:28;;;;;;;;;;;24.70;27.10;;;;;;501342;237;1136;-46
2021/12/10 04:48:29;;;;;;;;;;;24.70;27.20;;;;;;501482;236;1066;-47
2021/12/10 04:50:30;;;;;;;;;;;24.70;27.10;;;;;;501900;236;1215;-47
2021/12/10 04:52:31;;;;;;;;;;;24.70;27.10;;;;;;501428;237;1129;-47
2021/12/10 04:54:33;;;;;;;;;;;24.70;27.10;;;;;;501509;237;1044;-47
2021/12/10 04:56:34;;;;;;;;;;;24.70;27.10;;;;;;501400;237;2375;-47
2021/12/10 04:58:35;;;;;;;;;;;24.70;27.10;;;;;;501864;236;2187;-47
2021/12/10 05:00:37;;;;;;;;;;;24.70;27.10;;;;;;501412;237;1257;-47
2021/12/10 05:02:38;;;;;;;;;;;24.60;27.10;;;;;;501857;236;1250;-47
2021/12/10 05:04:40;;;;;;;;;;;24.60;27.10;;;;;;501971;236;1018;-47
2021/12/10 05:06:41;;;;;;;;;;;24.70;27.10;;;;;;501757;236;1341;-47
2021/12/10 05:08:42;;;;;;;;;;;24.70;27.10;;;;;;501806;236;1042;-47
2021/12/10 05:10:44;;;;;;;;;;;24.70;27.10;;;;;;501941;236;1421;-47
2021/12/10 05:12:45;;;;;;;;;;;24.70;27.10;;;;;;501417;237;1107;-47
2021/12/10 05:14:46;;;;;;;;;;;24.70;27.10;;;;;;501503;237;1154;-46
2021/12/10 05:16:47;;;;;;;;;;;24.70;27.10;;;;;;501707;236;1200;-47
2021/12/10 05:18:55;;;;;;;;;;;24.70;27.10;;;;;;501943;236;2187;-47
2021/12/10 05:20:50;;;;;;;;;;;24.70;27.10;;;;;;501007;237;2137;-47
2021/12/10 05:22:51;;;;;;;;;;;24.70;27.10;;;;;;501451;237;1602;-47
2021/12/10 05:24:53;;;;;;;;;;;24.70;27.00;;;;;;501507;236;1033;-47
2021/12/10 05:26:54;;;;;;;;;;;24.70;27.10;;;;;;501549;236;1571;-47
2021/12/10 05:28:55;;;;;;;;;;;24.70;27.10;;;;;;501869;236;1058;-47
2021/12/10 05:30:57;;;;;;;;;;;24.70;27.00;;;;;;501412;236;1279;-47
2021/12/10 05:33:00;;;;;;;;;;;24.70;27.00;;;;;;501668;236;1163;-47
2021/12/10 05:35:00;;;;;;;;;;;24.70;27.00;;;;;;501579;237;2369;-47
2021/12/10 05:37:01;;;;;;;;;;;24.70;27.00;;;;;;501623;236;1112;-47
2021/12/10 05:39:03;;;;;;;;;;;24.70;27.00;;;;;;501800;236;2187;-46
2021/12/10 05:41:05;;;;;;;;;;;24.70;27.00;;;;;;501762;236;1277;-47
2021/12/10 05:43:06;;;;;;;;;;;24.70;27.00;;;;;;501399;236;1186;-47
2021/12/10 05:45:07;;;;;;;;;;;24.70;27.00;;;;;;501590;236;1199;-47
2021/12/10 05:47:09;;;;;;;;;;;24.70;27.00;;;;;;501800;236;1363;-47
2021/12/10 05:49:10;;;;;;;;;;;24.70;27.00;;;;;;501388;237;1199;-47
2021/12/10 05:51:11;;;;;;;;;;;24.70;26.90;;;;;;501845;236;1364;-47
2021/12/10 05:53:13;;;;;;;;;;;24.80;27.00;;;;;;501860;236;1194;-47
2021/12/10 05:55:14;;;;;;;;;;;24.70;26.90;;;;;;501428;236;1078;-47
2021/12/10 05:57:15;;;;;;;;;;;24.70;26.90;;;;;;501769;236;1212;-47
2021/12/10 05:59:17;;;;;;;;;;;24.70;26.90;;;;;;501584;236;2180;-47
2021/12/10 06:01:18;;;;;;;;;;;24.70;26.90;;;;;;501354;236;1282;-47
2021/12/10 06:03:19;;;;;;;;;;;24.70;26.90;;;;;;501754;236;1098;-47
2021/12/10 06:05:21;;;;;;;;;;;24.70;27.00;;;;;;501744;236;1043;-47
2021/12/10 06:07:22;;;;;;;;;;;24.70;26.90;;;;;;501349;236;1183;-47
2021/12/10 06:09:23;;;;;;;;;;;24.70;26.90;;;;;;501634;236;1180;-47
2021/12/10 06:11:25;;;;;;;;;;;24.70;26.90;;;;;;501824;236;1303;-47
2021/12/10 06:13:26;;;;;;;;;;;24.60;26.90;;;;;;501858;236;1101;-47
2021/12/10 06:15:27;;;;;;;;;;;24.70;26.90;;;;;;501319;236;1172;-46
2021/12/10 06:17:29;;;;;;;;;;;24.70;26.90;;;;;;501634;236;1146;-47
2021/12/10 06:19:30;;;;;;;;;;;24.70;26.90;;;;;;501841;236;2104;-47
2021/12/10 06:21:32;;;;;;;;;;;24.70;26.90;;;;;;501673;236;1429;-47
2021/12/10 06:23:33;;;;;;;;;;;24.70;26.90;;;;;;501402;236;2396;-47
2021/12/10 06:25:34;;;;;;;;;;;24.70;26.90;;;;;;501716;236;1110;-47
2021/12/10 06:27:36;;;;;;;;;;;24.70;26.90;;;;;;501264;236;1195;-47
2021/12/10 06:29:41;;;;;;;;;;;24.70;26.90;;;;;;501413;236;1084;-46
2021/12/10 06:31:38;;;;;;;;;;;24.70;26.90;;;;;;500994;237;2483;-47
2021/12/10 06:33:40;;;;;;;;;;;24.70;26.90;;;;;;501514;236;1075;-47
2021/12/10 06:35:41;;;;;;;;;;;24.70;26.90;;;;;;501509;236;1502;-47
2021/12/10 06:37:42;;;;;;;;;;;24.70;26.90;;;;;;501312;236;1136;-47
2021/12/10 06:39:44;;;;;;;;;;;24.70;26.90;;;;;;501620;236;2167;-47
2021/12/10 06:41:45;;;;;;;;;;;24.70;26.90;;;;;;501772;236;1327;-47
2021/12/10 06:43:46;;;;;;;;;;;24.60;26.90;;;;;;501776;236;1015;-47
2021/12/10 06:45:48;;;;;;;;;;;24.70;26.90;;;;;;501195;237;1289;-47
2021/12/10 06:47:50;;;;;;;;;;;24.70;26.80;;;;;;501094;237;1138;-46
2021/12/10 06:49:50;;;;;;;;;;;24.70;26.80;;;;;;501078;237;1951;-47
2021/12/10 06:51:52;;;;;;;;;;;24.70;26.80;;;;;;501202;236;1142;-47
2021/12/10 06:53:53;;;;;;;;;;;24.70;26.80;;;;;;501159;236;1166;-47
2021/12/10 06:55:54;;;;;;;;;;;24.80;26.80;;;;;;501244;236;1243;-47
2021/12/10 06:57:56;;;;;;;;;;;24.70;26.80;;;;;;501301;236;2187;-47
2021/12/10 06:59:57;;;;;;;;;;;24.70;26.80;;;;;;501174;237;1296;-47
2021/12/10 07:01:58;;;;;;;;;;;24.70;26.80;;;;;;501036;236;1195;-47
2021/12/10 07:04:00;;;;;;;;;;;24.70;26.80;;;;;;501370;236;1257;-47
2021/12/10 07:06:01;;;;;;;;;;;24.70;26.80;;;;;;501441;236;1204;-47
2021/12/10 07:08:02;;;;;;;;;;;24.70;26.80;;;;;;501232;236;1102;-47
2021/12/10 07:10:04;;;;;;;;;;;24.60;26.80;;;;;;501160;236;1084;-47
2021/12/10 07:12:05;;;;;;;;;;;24.70;26.80;;;;;;501223;236;1400;-46
2021/12/10 07:14:06;;;;;;;;;;;24.70;26.70;;;;;;501600;236;1179;-47
2021/12/10 07:16:08;;;;;;;;;;;24.80;26.70;;;;;;501228;236;1248;-47
2021/12/10 07:18:09;;;;;;;;;;;24.70;26.70;;;;;;500923;236;2195;-47
2021/12/10 07:20:10;;;;;;;;;;;24.80;26.70;;;;;;501043;237;1072;-47
2021/12/10 07:22:12;;;;;;;;;;;24.80;26.70;;;;;;501199;236;1055;-47
2021/12/10 07:24:13;;;;;;;;;;;24.80;26.70;;;;;;501054;236;1327;-47
2021/12/10 07:26:14;;;;;;;;;;;24.80;26.60;;;;;;501281;236;1126;-46
2021/12/10 07:28:16;;;;;;;;;;;24.80;26.60;;;;;;501119;237;1225;-47
2021/12/10 07:30:17;;;;;;;;;;;24.80;26.70;;;;;;501012;237;1152;-46
2021/12/10 07:32:18;;;;;;;;;;;24.70;26.60;;;;;;501037;237;1182;-47
2021/12/10 07:34:20;;;;;;;;;;;24.80;26.70;;;;;;501174;236;1048;-47
2021/12/10 07:36:21;;;;;;;;;;;24.80;26.60;;;;;;501008;236;1398;-47
2021/12/10 07:38:22;;;;;;;;;;;24.80;26.60;;;;;;500917;236;2247;-47
2021/12/10 07:40:23;;;;;;;;;;;24.80;26.60;;;;;;500902;237;1148;-47
2021/12/10 07:42:25;;;;;;;;;;;24.80;26.60;;;;;;501220;236;1468;-47
2021/12/10 07:44:26;;;;;;;;;;;24.80;26.60;;;;;;501129;236;1042;-47
2021/12/10 07:46:28;;;;;;;;;;;24.80;26.60;;;;;;501023;236;1257;-47
2021/12/10 07:48:29;;;;;;;;;;;24.80;26.60;;;;;;500931;237;2245;-47
2021/12/10 07:50:32;;;;;;;;;;;24.80;26.60;;;;;;500891;236;1127;-47
2021/12/10 07:52:34;;;;;;;;;;;24.80;26.50;;;;;;500757;237;2208;-47
2021/12/10 07:54:33;;;;;;;;;;;24.80;26.60;;;;;;500798;237;2353;-47
2021/12/10 07:56:34;;;;;;;;;;;24.80;26.60;;;;;;501015;236;1125;-47
2021/12/10 07:58:37;;;;;;;;;;;24.80;26.60;;;;;;501055;236;2136;-47
2021/12/10 08:00:37;;;;;;;;;;;24.80;26.60;;;;;;500838;237;2264;-47
2021/12/10 08:02:38;;;;;;;;;;;24.80;26.50;;;;;;500987;236;1251;-46
2021/12/10 08:04:40;;;;;;;;;;;24.80;26.50;;;;;;500963;237;1056;-47
2021/12/10 08:06:41;;;;;;;;;;;24.80;26.50;;;;;;500921;236;1191;-47
2021/12/10 08:08:42;;;;;;;;;;;24.80;26.50;;;;;;501199;236;1168;-47
2021/12/10 08:10:45;;;;;;;;;;;24.80;26.50;;;;;;500942;236;1217;-47
2021/12/10 08:12:45;;;;;;;;;;;24.80;26.50;;;;;;500719;237;1795;-47
2021/12/10 08:14:52;;;;;;;;;;;24.80;26.50;;;;;;501059;236;1081;-47
2021/12/10 08:16:47;;;;;;;;;;;24.80;26.50;;;;;;500391;237;2278;-47
2021/12/10 08:18:49;;;;;;;;;;;24.80;26.40;;;;;;500855;236;2108;-47
2021/12/10 08:20:51;;;;;;;;;;;24.80;26.40;;;;;;500770;237;1400;-46
2021/12/10 08:22:52;;;;;;;;;;;24.80;26.40;;;;;;500766;236;1216;-47
2021/12/10 08:24:53;;;;;;;;;;;24.80;26.40;;;;;;500764;236;1031;-47
2021/12/10 08:26:54;;;;;;;;;;;24.80;26.40;;;;;;500721;236;1230;-46
2021/12/10 08:28:56;;;;;;;;;;;24.80;26.40;;;;;;500617;237;1084;-46
2021/12/10 08:30:57;;;;;;;;;;;24.80;26.40;;;;;;500634;237;1197;-47
2021/12/10 08:32:58;;;;;;;;;;;24.80;26.40;;;;;;500839;236;1162;-47
2021/12/10 08:35:00;;;;;;;;;;;24.80;26.30;;;;;;500925;236;1125;-46
2021/12/10 08:37:01;;;;;;;;;;;24.80;26.30;;;;;;500651;236;1218;-47
2021/12/10 08:39:02;;;;;;;;;;;24.80;26.30;;;;;;500684;237;2199;-47
2021/12/10 08:41:04;;;;;;;;;;;24.80;26.30;;;;;;500619;237;1189;-47
2021/12/10 08:43:05;;;;;;;;;;;24.80;26.30;;;;;;501014;236;1045;-47
2021/12/10 08:45:06;;;;;;;;;;;24.80;26.30;;;;;;500731;237;1239;-47
2021/12/10 08:47:08;;;;;;;;;;;24.80;26.30;;;;;;500650;236;1210;-46
2021/12/10 08:49:09;;;;;;;;;;;24.80;26.30;;;;;;500830;236;1276;-47
2021/12/10 08:51:11;;;;;;;;;;;24.80;26.30;;;;;;500784;237;1231;-47
2021/12/10 08:53:13;;;;;;;;;;;24.80;26.30;;;;;;501610;236;1234;-47
2021/12/10 08:55:14;;;;;;;;;;;24.80;26.30;;;;;;500949;236;1172;-46
2021/12/10 08:57:15;;;;;;;;;;;24.80;26.30;;;;;;500721;237;2367;-47
2021/12/10 08:59:16;;;;;;;;;;;24.80;26.30;;;;;;500820;236;2172;-47
2021/12/10 09:01:17;;;;;;;;;;;24.80;26.20;;;;;;500876;236;1372;-47
2021/12/10 09:03:19;;;;;;;;;;;24.80;26.30;;;;;;501008;237;1055;-47
2021/12/10 09:05:20;;;;;;;;;;;24.80;26.20;;;;;;500721;237;1044;-47
2021/12/10 09:07:21;;;;;;;;;;;24.80;26.20;;;;;;500867;236;1226;-47
2021/12/10 09:09:23;;;;;;;;;;;24.80;26.20;;;;;;500956;236;1043;-47
2021/12/10 09:11:24;;;;;;;;;;;24.80;26.20;;;;;;500860;236;1156;-46
2021/12/10 09:13:25;;;;;;;;;;;24.80;26.20;;;;;;500893;236;1249;-46
2021/12/10 09:15:28;;;;;;;;;;;24.80;26.20;;;;;;501028;236;1310;-47
2021/12/10 09:17:28;;;;;;;;;;;24.80;26.20;;;;;;501019;237;1374;-47
2021/12/10 09:19:29;;;;;;;;;;;24.80;26.20;;;;;;500856;236;2108;-47
2021/12/10 09:21:31;;;;;;;;;;;24.80;26.20;;;;;;500664;237;1335;-47
2021/12/10 09:23:32;;;;;;;;;;;24.80;26.20;;;;;;500897;236;1521;-47
2021/12/10 09:25:33;;;;;;;;;;;24.80;26.10;;;;;;500905;236;1133;-46
2021/12/10 09:27:35;;;;;;;;;;;24.70;26.10;;;;;;500964;236;1688;-47
2021/12/10 09:29:36;;;;;;;;;;;24.70;26.10;;;;;;501074;236;1095;-47
2021/12/10 09:31:39;;;;;;;;;;;24.70;26.10;;;;;;500872;237;1371;-47
2021/12/10 09:33:39;;;;;;;;;;;24.70;26.10;;;;;;500856;237;3039;-47
2021/12/10 09:35:40;;;;;;;;;;;24.70;26.10;;;;;;501149;236;1210;-47
2021/12/10 09:37:41;;;;;;;;;;;24.70;26.10;;;;;;500869;236;1138;-47
2021/12/10 09:39:44;;;;;;;;;;;24.70;26.10;;;;;;500814;237;2187;-47
2021/12/10 09:41:45;;;;;;;;;;;24.70;26.00;;;;;;500992;236;1272;-47
2021/12/10 09:43:46;;;;;;;;;;;24.70;26.10;;;;;;501172;236;1060;-47
2021/12/10 09:45:47;;;;;;;;;;;24.70;26.00;;;;;;501166;236;1219;-47
2021/12/10 09:47:49;;;;;;;;;;;24.80;26.00;;;;;;500824;236;1087;-47
2021/12/10 09:49:50;;;;;;;;;;;24.80;26.00;;;;;;500745;236;1090;-47
2021/12/10 09:51:51;;;;;;;;;;;24.80;26.00;;;;;;500973;236;1312;-47
2021/12/10 09:53:53;;;;;;;;;;;24.80;25.90;;;;;;500981;236;1232;-47
2021/12/10 09:55:54;;;;;;;;;;;24.80;26.00;;;;;;501018;236;1346;-47
2021/12/10 09:57:55;;;;;;;;;;;24.80;26.00;;;;;;500992;236;1223;-47
2021/12/10 09:59:57;;;;;;;;;;;24.80;25.90;;;;;;500854;236;2175;-47
2021/12/10 10:01:59;;;;;;;;;;;24.80;25.90;;;;;;500770;236;1198;-47
2021/12/10 10:04:01;;;;;;;;;;;24.80;26.00;;;;;;500964;236;2232;-47
2021/12/10 10:06:01;;;;;;;;;;;24.80;25.90;;;;;;500606;238;1417;-47
2021/12/10 10:08:02;;;;;;;;;;;24.80;25.90;;;;;;500898;236;1146;-47
2021/12/10 10:10:03;;;;;;;;;;;24.80;25.90;;;;;;500992;236;1122;-47
2021/12/10 10:12:05;;;;;;;;;;;24.70;25.90;;;;;;501050;237;1192;-47
2021/12/10 10:14:06;;;;;;;;;;;24.70;25.90;;;;;;501166;236;1038;-47
2021/12/10 10:16:07;;;;;;;;;;;24.70;25.90;;;;;;500851;236;1549;-47
2021/12/10 10:18:09;;;;;;;;;;;24.80;25.90;;;;;;500917;236;1230;-47
2021/12/10 10:20:10;;;;;;;;;;;24.80;25.90;;;;;;501007;236;2147;-47
2021/12/10 10:22:11;;;;;;;;;;;24.80;25.90;;;;;;500931;236;1175;-47
2021/12/10 10:24:13;;;;;;;;;;;24.80;25.90;;;;;;500875;236;1347;-47
2021/12/10 10:26:14;;;;;;;;;;;24.70;25.80;;;;;;500809;236;1325;-46
2021/12/10 10:28:16;;;;;;;;;;;24.80;25.90;;;;;;500874;236;1240;-47
2021/12/10 10:30:17;;;;;;;;;;;24.70;25.80;;;;;;500637;236;1319;-46
2021/12/10 10:32:18;;;;;;;;;;;24.70;25.80;;;;;;500944;236;1280;-47
2021/12/10 10:34:20;;;;;;;;;;;24.70;25.80;;;;;;501025;236;1201;-47
2021/12/10 10:36:22;;;;;;;;;;;24.70;25.80;;;;;;500712;236;1315;-47
2021/12/10 10:38:22;;;;;;;;;;;24.80;25.90;;;;;;500854;237;2240;-47
2021/12/10 10:40:24;;;;;;;;;;;24.80;25.90;;;;;;500859;236;2109;-47
2021/12/10 10:42:25;;;;;;;;;;;24.80;25.80;;;;;;500880;236;1154;-47
2021/12/10 10:44:26;;;;;;;;;;;24.70;25.80;;;;;;500920;236;1088;-47
2021/12/10 10:46:28;;;;;;;;;;;24.70;25.80;;;;;;500839;236;1569;-46
2021/12/10 10:48:29;;;;;;;;;;;24.70;25.80;;;;;;500953;236;1216;-47
2021/12/10 10:50:30;;;;;;;;;;;24.70;25.80;;;;;;500896;236;1137;-47
2021/12/10 10:52:32;;;;;;;;;;;24.70;25.80;;;;;;500677;236;1215;-47
2021/12/10 10:54:33;;;;;;;;;;;24.70;25.80;;;;;;500979;236;1106;-47
2021/12/10 10:56:34;;;;;;;;;;;24.70;25.80;;;;;;500776;236;1632;-47
2021/12/10 10:58:36;;;;;;;;;;;24.80;25.80;;;;;;500696;237;1101;-47
2021/12/10 11:00:43;;;;;;;;;;;24.80;25.80;;;;;;500682;236;2187;-47
2021/12/10 11:02:38;;;;;;;;;;;24.80;25.80;;;;;;500372;237;2177;-47
2021/12/10 11:04:40;;;;;;;;;;;24.80;25.80;;;;;;500826;236;1169;-47
2021/12/10 11:06:41;;;;;;;;;;;24.80;25.80;;;;;;500876;236;1129;-47
2021/12/10 11:08:42;;;;;;;;;;;24.80;25.80;;;;;;500794;237;1092;-47
2021/12/10 11:10:45;;;;;;;;;;;24.80;25.80;;;;;;500827;236;1268;-46
2021/12/10 11:12:45;;;;;;;;;;;24.80;25.80;;;;;;500824;236;3001;-47
2021/12/10 11:14:48;;;;;;;;;;;24.80;25.80;;;;;;500938;236;1114;-47
2021/12/10 11:16:48;;;;;;;;;;;24.80;25.70;;;;;;500794;236;1963;-47
2021/12/10 11:18:49;;;;;;;;;;;24.80;25.80;;;;;;500898;236;1144;-47
2021/12/10 11:20:50;;;;;;;;;;;24.80;25.70;;;;;;500982;236;2179;-47
2021/12/10 11:22:52;;;;;;;;;;;24.80;25.70;;;;;;500974;236;1111;-47
2021/12/10 11:24:55;;;;;;;;;;;24.80;25.80;;;;;;500885;236;1102;-47
2021/12/10 11:26:55;;;;;;;;;;;24.80;25.80;;;;;;501062;237;2295;-47
2021/12/10 11:28:56;;;;;;;;;;;24.80;25.80;;;;;;500850;237;1038;-47
2021/12/10 11:31:03;;;;;;;;;;;24.80;25.70;;;;;;500833;236;1557;-47
2021/12/10 11:33:01;;;;;;;;;;;24.80;25.70;;;;;;500519;237;2201;-47
2021/12/10 11:35:02;;;;;;;;;;;24.80;25.70;;;;;;500877;236;1215;-47
2021/12/10 11:37:03;;;;;;;;;;;24.80;25.80;;;;;;500638;236;1229;-46
2021/12/10 11:39:05;;;;;;;;;;;24.80;25.70;;;;;;500739;236;1174;-47
2021/12/10 11:41:06;;;;;;;;;;;24.90;25.70;;;;;;500809;236;2187;-47
2021/12/10 11:43:18;;;;;;;;;;;24.80;25.70;;;;;;500953;236;1183;-47
2021/12/10 11:45:29;;;;;;;;;;;24.90;25.80;;;;;;500469;237;2040;-47
2021/12/10 11:47:27;;;;;;;;;;;24.80;25.70;;;;;;500182;237;2216;-47
2021/12/10 11:49:26;;;;;;;;;;;24.80;25.70;;;;;;500850;237;2001;-46
2021/12/10 11:51:27;;;;;;;;;;;24.80;25.80;;;;;;500905;237;2426;-46
2021/12/10 11:53:28;;;;;;;;;;;24.80;25.70;;;;;;500854;237;1037;-47
2021/12/10 11:55:29;;;;;;;;;;;24.80;25.70;;;;;;500856;236;1061;-47
2021/12/10 11:57:31;;;;;;;;;;;24.80;25.70;;;;;;500925;236;1294;-46
2021/12/10 11:59:32;;;;;;;;;;;24.80;25.70;;;;;;500963;236;1212;-47
2021/12/10 12:01:33;;;;;;;;;;;24.80;25.70;;;;;;500950;236;2175;-47
2021/12/10 12:03:34;;;;;;;;;;;24.80;25.70;;;;;;500753;236;1150;-47
2021/12/10 12:05:36;;;;;;;;;;;24.80;25.80;;;;;;500714;236;1167;-47